Tiempo atmosférico en la estación meteorológica de El Bodón Base Aérea, Salamanca (805 m.)



Fecha
DESCASC
Temp. máxima en grados centígrados (hora)
DESCASC
Temp. mínima en grados centígrados (hora)
DESCASC
Temp. media en grados centígrados
DESCASC
Racha de viento máxima en m/sg (hora)
DESCASC
Velocidad máxima media en intervalos de 10 minutos(hora)
DESCASC
Precipitaciones diarias en mm
DESCASC
Precipitaciones de 00:00 a 06:00 en mm
DESCASC
Precipitaciones de 06:00 a 12:00 en mm
DESCASC
Precipitaciones de 12:00 a 18:00 en mm
DESCASC
Precipitaciones de 18:00 a 24:00 en mm
DESCASC
02-04-2020 13.2 (19:10) -0.1 (06:40) 6.5 9.44 (18:10) 5.56 (16:30) 0 0 0 0 0
01-04-2020 10.2 (15:50) -0.6 (07:30) 4.8 9.44 (14:50) 5.28 (01:00) 0.2 0.2 0 0 0
31-03-2020 9.1 (17:50) -0.2 (00:00) 4.5 12.22 (00:50) 6.11 (00:50) 9.8 0.4 0.2 6.8 2.4
30-03-2020 9.8 (00:20) 0.6 (22:40) 5.2 14.72 (20:10) 7.78 (17:50) 0 0 0 0 0
29-03-2020 16.1 (15:50) 0.7 (00:00) 8.4 5.56 (14:20) 3.06 (04:40) 0 0 0 0 0
28-03-2020 14.6 (15:20) -0.5 (-00:0) 7.1 6.67 (16:30) 4.17 (18:40) 0 0 0 0 0
27-03-2020 11.1 (15:40) 0.5 (00:00) 5.8 8.61 (11:30) 5.83 (17:00) 0 0 0 0 0
26-03-2020 15.3 (17:00) 3.4 (00:00) 9.4 8.89 (14:50) 5.28 (16:30) 0 0 0 0 0
25-03-2020 16.9 (16:50) 4.3 (00:00) 10.6 9.72 (16:10) 6.39 (20:00) 0 0 0 0 0
24-03-2020 15.3 (14:30) 1.3 (00:00) 8.3 6.94 (13:20) 4.17 (13:10) 0.2 0 0.2 0 0
23-03-2020 14.9 (15:50) 2.3 (00:00) 8.6 8.61 (16:40) 5.28 (16:40) 0 0 0 0 0
22-03-2020 12.6 (18:00) 1.3 (04:20) 7 8.06 (15:20) 5 (15:30) 0 0 0 0 0
21-03-2020 9.8 (18:00) 2.8 (00:00) 6.3 10.56 (01:50) 5 (01:50) 6.2 2.8 2.6 0.8 0
20-03-2020 10.1 (01:00) 7.9 (00:00) 9 10.83 (14:20) 6.67 (14:20) 33.6 0 9.6 15.6 8.4
19-03-2020 13.6 (16:30) 6.8 (00:00) 10.2 5 (20:30) 3.89 (20:40) 0 0 0 0 0
18-03-2020 16.5 (17:50) 2.2 (00:00) 9.4 5 (23:20) 3.61 (23:10) 0 0 0 0 0
17-03-2020 15.2 (16:20) 2.3 (00:00) 8.7 10.28 (00:30) 5.83 (00:20) 0.4 0.4 0 0 0
16-03-2020 5.3 (12:40) 0.4 (00:00) 2.9 16.11 (17:40) 8.89 (17:40) 9.4 0 0.4 5.2 3.8
15-03-2020 16.7 (14:00) 1.1 (00:00) 8.9 12.78 (14:50) 8.33 (13:20) 0.2 0 0 0 0.2
14-03-2020 18.6 (16:50) 2.8 (00:00) 10.7 5 (16:50) 3.06 (18:00) 0 0 0 0 0
13-03-2020 15.2 (17:50) 7.5 (07:00) 11.3 7.78 (15:30) 5 (15:30) 0 0 0 0 0
12-03-2020 22.4 (16:20) 9.9 (00:00) 16.1 7.78 (13:10) 5.28 (13:10) 0 0 0 0 0
11-03-2020 24.1 (14:50) 4.9 (00:00) 14.5 8.61 (15:30) 6.11 (15:20) 0 0 0 0 0
10-03-2020 23.2 (16:50) 3.2 (00:00) 13.2 5.83 (17:40) 3.33 (17:00) 0 0 0 0 0
09-03-2020 14 (17:10) 2.8 (00:00) 8.4 8.33 (13:50) 5.83 (14:00) 0 0 0 0 0
08-03-2020 11.6 (17:00) -1.7 (-00:0) 5 6.39 (21:10) 3.89 (21:10) 0 0 0 0 0
07-03-2020 14.4 (16:40) 0.7 (00:00) 7.5 5.28 (01:00) 3.33 (12:00) 0 0 0 0 0
06-03-2020 9.8 (17:30) 3.3 (00:00) 6.6 13.89 (10:10) 9.72 (13:50) 0 0 0 0 0
05-03-2020 11.8 (15:20) 4.9 (00:00) 8.4 14.44 (16:20) 8.89 (15:40) 0.8 0 0.8 0 0

Gráficas

Temp. máximas Temp. mínimas Temp. medias Precipitaciones Rachas de viento máximas Velocidades máximas media en intervalos de 10 minutos

Datos horarios

Fecha y hora oficial Temperatura (ºC) Velocidad del viento (km/h) Dirección del viento Racha (km/h) Dirección de racha Precipitación (mm) Presión (hPa) Tendencia (hPa) Humedad (%)
2020-04-03 23:00:00 -- -- -- -- -- -- -- -- --
2020-04-03 22:00:00 -- -- -- -- -- -- -- -- --
2020-04-03 21:00:00 -- -- -- -- -- -- -- -- --
2020-04-03 20:00:00 -- -- -- -- -- -- -- -- --
2020-04-03 19:00:00 -- -- -- -- -- -- -- -- --
2020-04-03 18:00:00 -- -- -- -- -- -- -- -- --
2020-04-03 17:00:00 -- -- -- -- -- -- -- -- --
2020-04-03 16:00:00 -- -- -- -- -- -- -- -- --
2020-04-03 15:00:00 -- -- -- -- -- -- -- -- --
2020-04-03 14:00:00 -- -- -- -- -- -- -- -- --
2020-04-03 13:00:00 -- -- -- -- -- -- -- -- --
2020-04-03 12:00:00 -- -- -- -- -- -- -- -- --
2020-04-03 11:00:00 8.2 4 Sur 10 Sur 0 -- -- 95
2020-04-03 10:00:00 3.6 8 Sur 11 Sur 0 -- -- 98
2020-04-03 09:00:00 0.8 3 Sudeste 6 Sur 0 -- -- 97
2020-04-03 08:00:00 0.1 3 Sudeste 14 Sur 0 -- -- 96
2020-04-03 07:00:00 1.2 7 Sur 10 Sur 0 -- -- 96
2020-04-03 06:00:00 1.2 6 Sur 12 Sur 0 -- -- 96
2020-04-03 05:00:00 2 3 Sur 8 Sur 0 -- -- 94
2020-04-03 04:00:00 3.4 4 Norte 8 Sur 0 -- -- 94
2020-04-03 03:00:00 5.1 0 Calma 5 Norte 0 -- -- 90
2020-04-03 02:00:00 5.3 3 Norte 9 Sudeste 0 -- -- 89
2020-04-03 01:00:00 5.2 7 Sudeste 10 Sudeste 0 -- -- 85
2020-04-03 00:00:00 6.7 4 Nordeste 9 Norte 0 -- -- 86
2020-04-02 23:00:00 7.5 5 Norte 8 Norte 0 -- -- 82
2020-04-02 22:00:00 8.3 5 Nordeste 12 Nordeste 0 -- -- 80
2020-04-02 21:00:00 9.6 7 Nordeste 27 Este 0 -- -- 74
2020-04-02 20:00:00 11.8 17 Nordeste 28 Este 0 -- -- 66
2020-04-02 19:00:00 13.1 15 Nordeste 34 Nordeste 0 -- -- 60
2020-04-02 18:00:00 12.9 15 Nordeste 29 Nordeste 0 -- -- 60
2020-04-02 17:00:00 12.4 18 Nordeste 33 Nordeste 0 -- -- 65
2020-04-02 16:00:00 12.1 17 Norte 29 Nordeste 0 -- -- 68
2020-04-02 15:00:00 10.2 8 Norte 19 Norte 0 -- -- 79
2020-04-02 14:00:00 9.5 7 Norte 13 Nordeste 0 -- -- 83
2020-04-02 13:00:00 8.2 8 Norte 14 Norte 0 -- -- 90
2020-04-02 12:00:00 6 8 Norte 16 Nordeste 0 -- -- 95
2020-04-02 11:00:00 5.8 10 Norte 17 Norte 0 -- -- 97
2020-04-02 10:00:00 3.8 10 Norte 14 Norte 0 -- -- 97
2020-04-02 09:00:00 2.2 3 Norte 9 Este 0 -- -- 96
2020-04-02 08:00:00 0.9 5 Norte 9 Norte 0 -- -- 95
2020-04-02 07:00:00 0.1 0 Calma 7 Sur 0 -- -- 94
2020-04-02 06:00:00 0.6 0 Calma 13 Nordeste 0 -- -- 91
2020-04-02 05:00:00 1.7 4 Nordeste 9 Sur 0 -- -- 92
2020-04-02 04:00:00 1.6 7 Sur 11 Sur 0 -- -- 89
2020-04-02 03:00:00 2.2 3 Nordeste 8 Sudeste 0 -- -- 90
2020-04-02 02:00:00 2.4 3 Sudeste 8 Este 0 -- -- 88
2020-04-02 01:00:00 3.7 6 Sudeste 6 Sudeste 0 -- -- 87
2020-04-02 00:00:00 4.8 2 Sur 9 Sudeste 0 -- -- 83
2020-04-01 23:00:00 4.9 6 Sur 12 Sur 0 -- -- 80
2020-04-01 22:00:00 5.7 8 Este 12 Sudeste 0 -- -- 74
2020-04-01 21:00:00 6.7 5 Sudeste 17 Sur 0 -- -- 71
2020-04-01 20:00:00 9.3 10 Sur 24 Sur 0 -- -- 63
2020-04-01 19:00:00 10.1 14 Sur 28 Sur 0 -- -- 58
2020-04-01 18:00:00 10.1 17 Sur 29 Sur 0 -- -- 61
2020-04-01 17:00:00 9.8 11 Sudeste 31 Sudeste 0 -- -- 64
2020-04-01 16:00:00 9.4 15 Sur 28 Sur 0 -- -- 62
2020-04-01 15:00:00 8.4 17 Sur 34 Sur 0 -- -- 66
2020-04-01 14:00:00 8.6 16 Sudeste 34 Sudeste 0 -- -- 67
2020-04-01 13:00:00 7.6 15 Sudeste 31 Sudeste 0 -- -- 69
2020-04-01 12:00:00 6.3 14 Sur 28 Sudeste 0 -- -- 77
2020-04-01 11:00:00 4.1 6 Sur 17 Sur 0 -- -- 90
2020-04-01 10:00:00 2.2 7 Sur 13 Sudeste 0 -- -- 96
2020-04-01 09:00:00 -0.5 4 Sur 8 Sur 0 -- -- 95
2020-04-01 08:00:00 0.1 6 Sudeste 13 Sudeste 0 -- -- 95
2020-04-01 07:00:00 -0.4 8 Sur 11 Sur 0 -- -- 91
2020-04-01 06:00:00 0.6 6 Sudeste 10 Sudeste 0 -- -- 96
2020-04-01 05:00:00 0.5 0 Calma 7 Sudoeste 0 -- -- 94
2020-04-01 04:00:00 1.1 5 Sur 17 Sudoeste 0 -- -- 91
2020-04-01 03:00:00 2.1 13 Sudoeste 19 Sudoeste 0 -- -- 90
2020-04-01 02:00:00 3.5 12 Sudoeste 28 Sur 0 -- -- 91
2020-04-01 01:00:00 5.6 19 Sur 25 Sudoeste 0.2 -- -- 94
2020-04-01 00:00:00 5.9 7 Sur 15 Sur 0 -- -- 95
2020-03-31 23:00:00 6.5 9 Sur 21 Sur 0 -- -- 94
2020-03-31 22:00:00 6.8 11 Sur 21 Sur 1.6 -- -- 94
2020-03-31 21:00:00 7.5 9 Sudeste 21 Sudeste 0.8 -- -- 92
2020-03-31 20:00:00 8.1 12 Sudeste 23 Sudeste 0 -- -- 88
2020-03-31 19:00:00 8.3 10 Sudeste 20 Sur 0 -- -- 86
2020-03-31 18:00:00 9.1 12 Sur 25 Sudeste 0 -- -- 82
2020-03-31 17:00:00 8.1 6 Sur 14 Sur 0 -- -- 88
2020-03-31 16:00:00 7.5 2 Sudoeste 8 Noroeste 0 -- -- 89
2020-03-31 15:00:00 5.7 4 Norte 9 Norte 0.6 -- -- 92
2020-03-31 14:00:00 3.3 4 Norte 7 Nordeste 2.8 -- -- 97
2020-03-31 13:00:00 1.7 2 Noroeste 7 Norte 3.4 -- -- 97
2020-03-31 12:00:00 0.6 4 Norte 9 Norte 0.2 -- -- 97
2020-03-31 11:00:00 0 6 Norte 9 Norte 0 -- -- 97
2020-03-31 10:00:00 0 5 Norte 13 Nordeste 0 -- -- 97
2020-03-31 09:00:00 -0.2 7 Norte 13 Norte 0 -- -- 96
2020-03-31 08:00:00 0 8 Norte 18 Nordeste 0 -- -- 95
2020-03-31 07:00:00 0.2 11 Nordeste 25 Norte 0 -- -- 92
2020-03-31 06:00:00 0.6 17 Nordeste 27 Nordeste 0 -- -- 87
2020-03-31 05:00:00 0.8 17 Nordeste 29 Nordeste 0 -- -- 85
2020-03-31 04:00:00 1.1 17 Nordeste 31 Nordeste 0 -- -- 81
2020-03-31 03:00:00 1.1 14 Nordeste 37 Nordeste 0 -- -- 80
2020-03-31 02:00:00 1.3 21 Nordeste 44 Nordeste 0.2 -- -- 77
2020-03-31 01:00:00 1.4 19 Nordeste 44 Nordeste 0.2 -- -- 80
2020-03-31 00:00:00 1 16 Nordeste 28 Nordeste 0 -- -- 89
2020-03-30 23:00:00 0.6 17 Nordeste 31 Nordeste 0 -- -- 90
2020-03-30 22:00:00 1.1 16 Nordeste 41 Nordeste 0 -- -- 86
2020-03-30 21:00:00 1.9 18 Nordeste 53 Nordeste 0 -- -- 78
2020-03-30 20:00:00 2.5 23 Nordeste 42 Nordeste 0 -- -- 71
2020-03-30 19:00:00 2.4 21 Nordeste 41 Este 0 -- -- 74
2020-03-30 18:00:00 3.4 26 Nordeste 51 Nordeste 0 -- -- 68
2020-03-30 17:00:00 4.5 22 Nordeste 40 Nordeste 0 -- -- 61
2020-03-30 16:00:00 5.1 19 Nordeste 41 Nordeste 0 -- -- 60
2020-03-30 15:00:00 5.4 23 Nordeste 42 Nordeste 0 -- -- 60
2020-03-30 14:00:00 5.6 24 Nordeste 46 Este 0 -- -- 62
2020-03-30 13:00:00 6.4 26 Nordeste 44 Nordeste 0 -- -- 64
2020-03-30 12:00:00 4.6 19 Nordeste 50 Nordeste 0 -- -- 71
2020-03-30 11:00:00 4 23 Nordeste 44 Nordeste 0 -- -- 76
2020-03-30 10:00:00 4.1 25 Nordeste 45 Nordeste 0 -- -- 74
2020-03-30 09:00:00 4.6 17 Nordeste 37 Nordeste 0 -- -- 78
2020-03-30 08:00:00 4.6 22 Nordeste 39 Nordeste 0 -- -- 79
2020-03-30 07:00:00 4.8 15 Nordeste 35 Nordeste 0 -- -- 80
2020-03-30 06:00:00 5.2 12 Norte 22 Nordeste 0 -- -- 80
2020-03-30 05:00:00 5.8 9 Nordeste 19 Nordeste 0 -- -- 79
2020-03-30 04:00:00 6.4 9 Norte 15 Norte 0 -- -- 80
2020-03-30 03:00:00 7.8 8 Norte 15 Norte 0 -- -- 78
2020-03-30 02:00:00 8.4 3 Oeste 10 Este 0 -- -- 74
2020-03-30 01:00:00 8.9 6 Este 15 Este 0 -- -- 73
2020-03-30 00:00:00 9.6 4 Sur 13 Sur 0 -- -- 67
2020-03-29 23:00:00 10 7 Sur 10 Sudeste 0 -- -- 66
2020-03-29 22:00:00 10.8 6 Sudoeste 10 Sur 0 -- -- 63
2020-03-29 21:00:00 12.4 3 Sur 10 Sudoeste 0 -- -- 58
2020-03-29 20:00:00 14.5 6 Oeste 14 Sudoeste 0 -- -- 53
2020-03-29 19:00:00 15.4 6 Sudoeste 15 Sur 0 -- -- 52
2020-03-29 18:00:00 15.6 8 Sudoeste 13 Sudoeste 0 -- -- 50
2020-03-29 17:00:00 15.8 5 Este 18 Este 0 -- -- 46
2020-03-29 16:00:00 15.8 4 Sur 17 Este 0 -- -- 47
2020-03-29 15:00:00 15.4 8 Este 20 Nordeste 0 -- -- 48
2020-03-29 14:00:00 14.8 3 Sudoeste 13 Norte 0 -- -- 54
2020-03-29 13:00:00 13.5 6 Norte 13 Nordeste 0 -- -- 53
2020-03-29 12:00:00 12 6 Nordeste 11 Nordeste 0 -- -- 63
2020-03-29 11:00:00 10 3 Este 7 Sur 0 -- -- 73
2020-03-29 10:00:00 4.2 4 Sur 12 Sur 0 -- -- 92
2020-03-29 09:00:00 1.1 7 Sur 12 Sur 0 -- -- 91
2020-03-29 08:00:00 0.8 7 Sur 11 Sur 0 -- -- 92
2020-03-29 07:00:00 1.7 8 Sur 14 Sudeste 0 -- -- 90
2020-03-29 06:00:00 2.1 9 Sur 12 Sur 0 -- -- 90
2020-03-29 05:00:00 3 10 Sur 13 Sur 0 -- -- 84
2020-03-29 03:00:00 5.3 6 Sur 8 Sur 0 -- -- 72
2020-03-29 01:00:00 5.5 0 Calma 10 Sur 0 -- -- 71
2020-03-29 00:00:00 6.6 8 Sur 11 Sur 0 -- -- 67
2020-03-28 23:00:00 7.2 6 Sur 12 Sur 0 -- -- 65
2020-03-28 22:00:00 7.4 8 Sur 12 Sur 0 -- -- 65
2020-03-28 21:00:00 8.1 8 Sur 13 Sur 0 -- -- 64
2020-03-28 20:00:00 9.6 8 Sur 17 Sur 0 -- -- 61
2020-03-28 19:00:00 12.4 13 Sur 22 Sur 0 -- -- 53
2020-03-28 18:00:00 13.3 12 Sudeste 21 Sur 0 -- -- 55
2020-03-28 17:00:00 13.8 9 Sudoeste 24 Sur 0 -- -- 54
2020-03-28 16:00:00 13.9 12 Sudoeste 21 Sudoeste 0 -- -- 53
2020-03-28 15:00:00 14.1 9 Sudoeste 17 Sudoeste 0 -- -- 49
2020-03-28 14:00:00 13.3 4 Norte 13 Nordeste 0 -- -- 48
2020-03-28 13:00:00 11.8 4 Norte 15 Noroeste 0 -- -- 52
2020-03-28 12:00:00 10.6 7 Nordeste 16 Nordeste 0 -- -- 62
2020-03-28 11:00:00 8 5 Norte 10 Norte 0 -- -- 71
2020-03-28 10:00:00 4.8 3 Norte 7 Norte 0 -- -- 82
2020-03-28 09:00:00 1.7 2 Sur 10 Sur 0 -- -- 94
2020-03-28 08:00:00 -0.1 7 Sur 10 Sur 0 -- -- 94
2020-03-28 07:00:00 -0.5 6 Sur 8 Sur 0 -- -- 93
2020-03-28 06:00:00 -0.2 5 Sur 8 Sur 0 -- -- 92
2020-03-28 05:00:00 0.3 2 Sudeste 5 Sudeste 0 -- -- 92
2020-03-28 04:00:00 0.5 2 Sudeste 7 Sur 0 -- -- 88
2020-03-28 03:00:00 1.3 0 Calma 8 Sur 0 -- -- 81
2020-03-28 02:00:00 2.2 7 Sur 12 Sur 0 -- -- 82
2020-03-28 01:00:00 2.5 8 Sur 12 Sur 0 -- -- 81
2020-03-28 00:00:00 2.9 9 Sur 13 Sur 0 -- -- 81
2020-03-27 23:00:00 3.6 8 Sur 13 Sur 0 -- -- 81
2020-03-27 22:00:00 4.3 10 Sur 14 Sur 0 -- -- 80
2020-03-27 21:00:00 5.7 11 Sur 24 Sur 0 -- -- 74
2020-03-27 20:00:00 7.1 15 Sur 24 Sur 0 -- -- 68
2020-03-27 19:00:00 8.8 13 Sur 23 Sur 0 -- -- 65
2020-03-27 18:00:00 10.3 15 Sur 28 Sur 0 -- -- 60
2020-03-27 17:00:00 10.6 21 Sur 27 Sur 0 -- -- 60
2020-03-27 16:00:00 11 10 Norte 24 Norte 0 -- -- 48
2020-03-27 15:00:00 10.6 15 Norte 29 Norte 0 -- -- 51
2020-03-27 14:00:00 10.1 17 Norte 30 Nordeste 0 -- -- 50
2020-03-27 13:00:00 8.8 18 Nordeste 30 Nordeste 0 -- -- 55
2020-03-27 12:00:00 7.3 18 Norte 31 Norte 0 -- -- 61
2020-03-27 11:00:00 6 16 Norte 28 Norte 0 -- -- 67
2020-03-27 10:00:00 4.2 17 Norte 26 Norte 0 -- -- 69
2020-03-27 09:00:00 2 15 Norte 21 Norte 0 -- -- 74
2020-03-27 08:00:00 0.6 7 Norte 21 Norte 0 -- -- 80
2020-03-27 07:00:00 2.2 13 Nordeste 28 Nordeste 0 -- -- 72
2020-03-27 06:00:00 1.6 11 Norte 20 Nordeste 0 -- -- 77
2020-03-27 05:00:00 1.5 9 Norte 13 Norte 0 -- -- 84
2020-03-27 04:00:00 3.7 6 Norte 15 Nordeste 0 -- -- 83
2020-03-27 03:00:00 4.9 8 Norte 12 Norte 0 -- -- 92
2020-03-27 02:00:00 4 3 Norte 8 Nordeste 0 -- -- 89
2020-03-27 01:00:00 4.4 2 Sudoeste 6 Este 0 -- -- 86
2020-03-27 00:00:00 6.2 3 Este 8 Norte 0 -- -- 83
2020-03-26 23:00:00 7.4 6 Norte 14 Noroeste 0 -- -- 82
2020-03-26 22:00:00 8.2 7 Noroeste 18 Noroeste 0 -- -- 81
2020-03-26 21:00:00 9.3 7 Noroeste 26 Oeste 0 -- -- 78
2020-03-26 20:00:00 11.4 10 Oeste 25 Noroeste 0 -- -- 67
2020-03-26 19:00:00 14.1 10 Noroeste 24 Noroeste 0 -- -- 53
2020-03-26 18:00:00 15.2 13 Norte 26 Noroeste 0 -- -- 37
2020-03-26 17:00:00 15.3 16 Norte 30 Norte 0 -- -- 35
2020-03-26 16:00:00 14.9 17 Noroeste 31 Norte 0 -- -- 37
2020-03-26 15:00:00 14.3 16 Noroeste 32 Noroeste 0 -- -- 38
2020-03-26 14:00:00 13 18 Noroeste 29 Noroeste 0 -- -- 50
2020-03-26 13:00:00 11.9 11 Noroeste 24 Noroeste 0 -- -- 59
2020-03-26 12:00:00 10.4 13 Norte 28 Noroeste 0 -- -- 70
2020-03-26 11:00:00 8.1 6 Nordeste 14 Noroeste 0 -- -- 92
2020-03-26 10:00:00 5.4 10 Norte 17 Norte 0 -- -- 97
2020-03-26 09:00:00 4.6 10 Norte 15 Norte 0 -- -- 97
2020-03-26 08:00:00 3.5 8 Norte 12 Noroeste 0 -- -- 94
2020-03-26 07:00:00 4.7 5 Noroeste 9 Noroeste 0 -- -- 92
2020-03-26 06:00:00 5.2 5 Noroeste 10 Noroeste 0 -- -- 91
2020-03-26 05:00:00 5.4 9 Noroeste 10 Noroeste 0 -- -- 90
2020-03-26 04:00:00 6.4 8 Norte 14 Noroeste 0 -- -- 88
2020-03-26 03:00:00 6.5 8 Noroeste 11 Noroeste 0 -- -- 87
2020-03-26 02:00:00 7.9 3 Noroeste 10 Noroeste 0 -- -- 82
2020-03-26 01:00:00 8.6 7 Noroeste 21 Oeste 0 -- -- 80
2020-03-26 00:00:00 9.3 14 Oeste 26 Oeste 0 -- -- 80
2020-03-25 23:00:00 9.7 14 Oeste 25 Oeste 0 -- -- 81
2020-03-25 22:00:00 10.7 15 Oeste 23 Oeste 0 -- -- 78
2020-03-25 21:00:00 11.4 15 Oeste 29 Noroeste 0 -- -- 68
2020-03-25 20:00:00 12.9 23 Noroeste 31 Noroeste 0 -- -- 70
2020-03-25 19:00:00 15 13 Noroeste 26 Noroeste 0 -- -- 58
2020-03-25 18:00:00 15.7 17 Noroeste 31 Noroeste 0 -- -- 54
2020-03-25 17:00:00 16.8 19 Norte 35 Noroeste 0 -- -- 42
2020-03-25 16:00:00 16.5 22 Noroeste 32 Norte 0 -- -- 47
2020-03-25 15:00:00 15.9 17 Noroeste 31 Noroeste 0 -- -- 53
2020-03-25 14:00:00 15.5 11 Norte 26 Norte 0 -- -- 60
2020-03-25 13:00:00 14.9 14 Noroeste 22 Noroeste 0 -- -- 62
2020-03-25 12:00:00 13.4 9 Nordeste 17 Norte 0 -- -- 66
2020-03-25 11:00:00 11.8 9 Noroeste 14 Noroeste 0 -- -- 71
2020-03-25 10:00:00 9.5 8 Oeste 15 Oeste 0 -- -- 84
2020-03-25 09:00:00 6 9 Sur 15 Sudeste 0 -- -- 95
2020-03-25 08:00:00 4.4 9 Sur 14 Sur 0 -- -- 94
2020-03-25 07:00:00 4.7 6 Sur 11 Sudoeste 0 -- -- 93
2020-03-25 06:00:00 4.7 0 Calma 8 Sur 0 -- -- 92
2020-03-25 05:00:00 5.5 8 Sur 15 Sur 0 -- -- 92
2020-03-25 04:00:00 5.6 12 Sur 16 Sur 0 -- -- 92
2020-03-25 03:00:00 6.2 8 Sur 15 Sur 0 -- -- 89
2020-03-25 02:00:00 6.2 10 Sur 14 Sur 0 -- -- 91
2020-03-25 01:00:00 6.8 11 Sur 16 Sur 0 -- -- 91
2020-03-25 00:00:00 7.4 8 Sur 12 Sur 0 -- -- 89
2020-03-24 23:00:00 8.2 3 Sudoeste 10 Sur 0 -- -- 86
2020-03-24 22:00:00 9.7 5 Sudoeste 13 Sur 0 -- -- 83
2020-03-24 21:00:00 10.9 9 Sur 17 Sudeste 0 -- -- 80
2020-03-24 20:00:00 12.8 5 Este 14 Sudeste 0 -- -- 67
2020-03-24 19:00:00 14.1 2 Nordeste 14 Norte 0 -- -- 60
2020-03-24 18:00:00 14.3 0 Calma 10 Sudoeste 0 -- -- 64
2020-03-24 17:00:00 13.8 10 Sudoeste 15 Sur 0 -- -- 67
2020-03-24 16:00:00 14.2 4 Nordeste 10 Nordeste 0 -- -- 60
2020-03-24 15:00:00 14.4 3 Este 16 Sur 0 -- -- 60
2020-03-24 14:00:00 14.2 9 Nordeste 25 Nordeste 0 -- -- 63
2020-03-24 13:00:00 13.5 11 Norte 23 Nordeste 0 -- -- 62
2020-03-24 12:00:00 12.7 7 Norte 14 Norte 0 -- -- 70
2020-03-24 11:00:00 10.1 9 Norte 14 Norte 0 -- -- 82
2020-03-24 10:00:00 7.2 5 Norte 8 Norte 0 -- -- 96
2020-03-24 09:00:00 3.5 0 Calma 5 Sudoeste 0.2 -- -- 98
2020-03-24 08:00:00 1.3 6 Sur 12 Sur 0 -- -- 97
2020-03-24 07:00:00 2.4 0 Calma 3 Noroeste 0 -- -- 98
2020-03-24 06:00:00 1.8 0 Calma 11 Sur 0 -- -- 96
2020-03-24 05:00:00 2.5 4 Sudeste 15 Sur 0 -- -- 97
2020-03-24 04:00:00 2.4 7 Sur 14 Sudeste 0 -- -- 97
2020-03-24 03:00:00 2.4 9 Sur 12 Sur 0 -- -- 96
2020-03-24 02:00:00 3.4 3 Sudoeste 13 Sur 0 -- -- 97
2020-03-24 01:00:00 4 8 Sur 15 Sur 0 -- -- 96
2020-03-24 00:00:00 4.7 8 Sur 10 Sur 0 -- -- 93
2020-03-23 23:00:00 6 5 Sur 9 Sur 0 -- -- 94
2020-03-23 22:00:00 6.5 6 Sur 11 Sur 0 -- -- 93
2020-03-23 21:00:00 7.2 5 Sur 10 Sur 0 -- -- 90
2020-03-23 20:00:00 9.1 2 Sur 11 Noroeste 0 -- -- 83
2020-03-23 19:00:00 11.6 5 Sudoeste 10 Oeste 0 -- -- 74
2020-03-23 18:00:00 10.3 5 Sur 25 Sur 0 -- -- 80
2020-03-23 17:00:00 12 13 Sudeste 31 Nordeste 0 -- -- 75
2020-03-23 16:00:00 14.5 14 Nordeste 28 Este 0 -- -- 58
2020-03-23 15:00:00 13.3 14 Nordeste 25 Nordeste 0 -- -- 62
2020-03-23 14:00:00 12.3 9 Nordeste 23 Nordeste 0 -- -- 68
2020-03-23 13:00:00 12.3 10 Norte 17 Norte 0 -- -- 79
2020-03-23 12:00:00 9.9 8 Norte 13 Nordeste 0 -- -- 90
2020-03-23 11:00:00 6.4 4 Norte 11 Norte 0 -- -- 98
2020-03-23 10:00:00 4.7 3 Nordeste 8 Norte 0 -- -- 98
2020-03-23 09:00:00 4.6 4 Norte 8 Norte 0 -- -- 97
2020-03-23 08:00:00 2.8 3 Norte 7 Noroeste 0 -- -- 97
2020-03-23 07:00:00 2.5 3 Sur 6 Sur 0 -- -- 95
2020-03-23 06:00:00 4.7 3 Norte 6 Norte 0 -- -- 94
2020-03-23 05:00:00 5.1 4 Norte 7 Norte 0 -- -- 93
2020-03-23 04:00:00 5.8 0 Calma 14 Nordeste 0 -- -- 89
2020-03-23 03:00:00 6.7 8 Nordeste 12 Nordeste 0 -- -- 88
2020-03-23 02:00:00 6.9 8 Norte 11 Norte 0 -- -- 89
2020-03-23 01:00:00 7.3 4 Nordeste 6 Nordeste 0 -- -- 85
2020-03-23 00:00:00 8.2 2 Nordeste 7 Nordeste 0 -- -- 83
2020-03-22 23:00:00 8.5 4 Nordeste 6 Nordeste 0 -- -- 83
2020-03-22 22:00:00 9 5 Este 23 Nordeste 0 -- -- 81
2020-03-22 21:00:00 10.4 12 Nordeste 20 Nordeste 0 -- -- 76
2020-03-22 20:00:00 10.4 9 Nordeste 14 Nordeste 0 -- -- 77
2020-03-22 19:00:00 11.6 9 Nordeste 21 Nordeste 0 -- -- 72
2020-03-22 18:00:00 12.6 12 Norte 28 Nordeste 0 -- -- 66
2020-03-22 17:00:00 12.4 17 Norte 26 Norte 0 -- -- 67
2020-03-22 16:00:00 11.9 17 Nordeste 29 Norte 0 -- -- 70
2020-03-22 15:00:00 11.6 15 Norte 28 Norte 0 -- -- 75
2020-03-22 14:00:00 10.5 8 Norte 18 Norte 0 -- -- 78
2020-03-22 13:00:00 8.8 9 Norte 16 Nordeste 0 -- -- 88
2020-03-22 12:00:00 7.7 8 Nordeste 16 Norte 0 -- -- 99
2020-03-22 11:00:00 5.8 9 Norte 13 Norte 0 -- -- 99
2020-03-22 10:00:00 5 4 Norte 6 Norte 0 -- -- 99
2020-03-22 09:00:00 4.3 0 Calma 7 Noroeste 0 -- -- 99
2020-03-22 08:00:00 3.6 5 Norte 9 Norte 0 -- -- 98
2020-03-22 07:00:00 2.9 2 Norte 5 Noroeste 0 -- -- 98
2020-03-22 06:00:00 2.6 0 Calma 5 Norte 0 -- -- 98
2020-03-22 05:00:00 1.8 0 Calma 9 Sur 0 -- -- 97
2020-03-22 04:00:00 1.8 6 Sur 9 Sudeste 0 -- -- 96
2020-03-22 03:00:00 3 0 Calma 8 Sur 0 -- -- 96
2020-03-22 02:00:00 2.2 5 Sur 13 Sur 0 -- -- 95
2020-03-22 01:00:00 2.4 3 Sur 12 Sur 0 -- -- 95
2020-03-22 00:00:00 2.8 8 Sur 10 Sur 0 -- -- 94
2020-03-21 23:00:00 4.2 5 Sudeste 8 Este 0 -- -- 93
2020-03-21 22:00:00 4.8 0 Calma 5 Nordeste 0 -- -- 89
2020-03-21 21:00:00 5.4 0 Calma 6 Sur 0 -- -- 82
2020-03-21 20:00:00 7.1 2 Sur 8 Este 0 -- -- 78
2020-03-21 19:00:00 8.7 5 Este 13 Este 0 -- -- 76
2020-03-21 18:00:00 9.8 9 Este 16 Sur 0 -- -- 77
2020-03-21 17:00:00 8.1 10 Sur 23 Sudeste 0.8 -- -- 86
2020-03-21 16:00:00 9.3 11 Sur 19 Sur 0 -- -- 80
2020-03-21 15:00:00 8.7 10 Sudeste 20 Sudeste 0 -- -- 81
2020-03-21 14:00:00 8.2 12 Sudeste 19 Este 0 -- -- 85
2020-03-21 13:00:00 6.8 10 Sudeste 18 Sur 0 -- -- 88
2020-03-21 12:00:00 6.3 9 Sudeste 19 Sudeste 0 -- -- 90
2020-03-21 11:00:00 5.9 9 Sudeste 25 Sudeste 0.2 -- -- 92
2020-03-21 10:00:00 5.5 17 Sudeste 28 Sudeste 0.4 -- -- 93
2020-03-21 09:00:00 5.5 14 Sur 23 Sur 0.6 -- -- 94
2020-03-21 08:00:00 5.7 9 Sur 18 Sudeste 0.2 -- -- 94
2020-03-21 07:00:00 6 5 Sur 14 Sur 1.2 -- -- 96
2020-03-21 06:00:00 6.1 0 Calma 4 Sudeste 0.2 -- -- 96
2020-03-21 05:00:00 6.1 0 Calma 5 Sudoeste 0 -- -- 95
2020-03-21 04:00:00 6.3 0 Calma 20 Sudoeste 0.2 -- -- 95
2020-03-21 03:00:00 6.9 15 Sudoeste 27 Sur 1 -- -- 95
2020-03-21 02:00:00 8.6 15 Sur 38 Sur 1.4 -- -- 94
2020-03-21 01:00:00 8.9 8 Sudeste 28 Sudeste 0 -- -- 98
2020-03-21 00:00:00 8.3 6 Nordeste 11 Nordeste 0 -- -- 98
2020-03-20 23:00:00 8.5 3 Nordeste 9 Noroeste 0.2 -- -- 97
2020-03-20 22:00:00 8.4 0 Calma 3 Sur 0.4 -- -- 97
2020-03-20 21:00:00 8.5 0 Calma 24 Sudoeste 4.6 -- -- 96
2020-03-20 20:00:00 8.9 13 Sur 22 Sur 2.6 -- -- 96
2020-03-20 19:00:00 9.1 8 Sudeste 20 Sudeste 0.6 -- -- 95
2020-03-20 18:00:00 9.3 7 Sur 24 Sudeste 0.2 -- -- 95
2020-03-20 17:00:00 9.4 15 Sudeste 24 Sudeste 0.2 -- -- 95
2020-03-20 16:00:00 9 12 Sudeste 23 Sudeste 1.6 -- -- 96
2020-03-20 15:00:00 8.5 13 Sudeste 39 Sudeste 3.2 -- -- 94
2020-03-20 14:00:00 8 22 Sudeste 35 Sudeste 5 -- -- 94
2020-03-20 13:00:00 8 15 Sur 30 Sudeste 5.4 -- -- 95
2020-03-20 12:00:00 8.1 15 Sur 27 Sur 5.4 -- -- 95
2020-03-20 11:00:00 8.4 12 Sur 27 Sur 3 -- -- 94
2020-03-20 10:00:00 8.8 14 Sur 25 Sur 1.2 -- -- 91
2020-03-20 09:00:00 9 13 Sur 21 Sur 0 -- -- 88
2020-03-20 08:00:00 8.8 12 Sur 21 Sur 0 -- -- 85
2020-03-20 07:00:00 8.1 6 Sur 12 Sur 0 -- -- 87
2020-03-20 06:00:00 8.9 6 Sur 11 Sur 0 -- -- 86
2020-03-20 05:00:00 9 8 Sur 15 Sur 0 -- -- 86
2020-03-20 04:00:00 9.4 6 Sur 13 Sur 0 -- -- 83
2020-03-20 03:00:00 9.5 3 Sudoeste 5 Sudoeste 0 -- -- 79
2020-03-20 02:00:00 9.9 2 Sur 4 Sudoeste 0 -- -- 78
2020-03-20 01:00:00 10.1 5 Sur 10 Sur 0 -- -- 77
2020-03-20 00:00:00 9 8 Sur 12 Sur 0 -- -- 82
2020-03-19 23:00:00 8.6 6 Sur 10 Sudeste 0 -- -- 87
2020-03-19 22:00:00 8.9 7 Sur 14 Sur 0 -- -- 86
2020-03-19 21:00:00 9.8 11 Sur 18 Sur 0 -- -- 82
2020-03-19 20:00:00 11 11 Sur 17 Sur 0 -- -- 79
2020-03-19 19:00:00 12.7 5 Sur 8 Sur 0 -- -- 77
2020-03-19 18:00:00 13.4 0 Calma 6 Nordeste 0 -- -- 70
2020-03-19 17:00:00 13.6 0 Calma 9 Nordeste 0 -- -- 69
2020-03-19 16:00:00 13.4 6 Norte 11 Norte 0 -- -- 67
2020-03-19 15:00:00 12.9 7 Norte 13 Norte 0 -- -- 67
2020-03-19 14:00:00 13.2 8 Nordeste 13 Norte 0 -- -- 65
2020-03-19 13:00:00 12.9 7 Norte 14 Norte 0 -- -- 67
2020-03-19 12:00:00 12.2 4 Nordeste 10 Norte 0 -- -- 72
2020-03-19 11:00:00 11 5 Norte 13 Norte 0 -- -- 78
2020-03-19 10:00:00 9.3 0 Calma 5 Sur 0 -- -- 89
2020-03-19 09:00:00 7.2 3 Sudeste 5 Norte 0 -- -- 91
2020-03-19 08:00:00 7.2 0 Calma 5 Sur 0 -- -- 88
2020-03-19 07:00:00 7.3 2 Sur 9 Sur 0 -- -- 87
2020-03-19 06:00:00 7.8 7 Sur 12 Sur 0 -- -- 87
2020-03-19 05:00:00 7.9 6 Sur 8 Sudoeste 0 -- -- 89
2020-03-19 04:00:00 7.9 0 Calma 10 Sudeste 0 -- -- 89
2020-03-19 03:00:00 8.7 8 Sudeste 12 Sudeste 0 -- -- 89
2020-03-19 02:00:00 8.9 5 Sudeste 9 Sur 0 -- -- 84
2020-03-19 01:00:00 9.8 6 Sur 14 Sur 0 -- -- 79
2020-03-19 00:00:00 9.8 5 Sur 18 Sur 0 -- -- 85
2020-03-18 23:00:00 10.3 10 Sur 16 Sur 0 -- -- 85
2020-03-18 22:00:00 11.1 9 Sur 14 Sur 0 -- -- 87
2020-03-18 21:00:00 12.4 0 Calma 5 Nordeste 0 -- -- 83
2020-03-18 20:00:00 13.6 5 Noroeste 13 Norte 0 -- -- 80
2020-03-18 19:00:00 15.1 10 Norte 13 Norte 0 -- -- 75
2020-03-18 18:00:00 16.4 5 Norte 13 Norte 0 -- -- 68
2020-03-18 17:00:00 15.8 6 Norte 16 Nordeste 0 -- -- 66
2020-03-18 16:00:00 15.8 11 Nordeste 18 Nordeste 0 -- -- 66
2020-03-18 15:00:00 15.8 10 Norte 15 Nordeste 0 -- -- 61
2020-03-18 14:00:00 14.8 6 Norte 16 Norte 0 -- -- 67
2020-03-18 13:00:00 14.1 4 Norte 11 Norte 0 -- -- 69
2020-03-18 12:00:00 11.9 4 Noroeste 8 Sur 0 -- -- 77
2020-03-18 11:00:00 9.9 4 Sudoeste 9 Oeste 0 -- -- 87
2020-03-18 10:00:00 7.1 2 Norte 11 Sur 0 -- -- 97
2020-03-18 09:00:00 3.5 6 Sur 14 Sudeste 0 -- -- 97
2020-03-18 08:00:00 2.2 3 Sur 11 Sur 0 -- -- 96
2020-03-18 07:00:00 3.6 0 Calma 7 Noroeste 0 -- -- 94
2020-03-18 06:00:00 4.1 0 Calma 8 Sudeste 0 -- -- 95
2020-03-18 05:00:00 3.1 6 Sur 13 Sur 0 -- -- 94
2020-03-18 04:00:00 3.8 4 Sur 13 Sur 0 -- -- 93
2020-03-18 03:00:00 3.6 9 Sur 13 Sudeste 0 -- -- 91
2020-03-18 02:00:00 5.1 4 Sudoeste 10 Nordeste 0 -- -- 85
2020-03-18 01:00:00 6 6 Nordeste 14 Nordeste 0 -- -- 87
2020-03-18 00:00:00 6.5 2 Sudoeste 15 Norte 0 -- -- 85
2020-03-17 23:00:00 5.9 3 Sur 14 Sur 0 -- -- 86
2020-03-17 22:00:00 7.9 5 Nordeste 8 Nordeste 0 -- -- 75
2020-03-17 21:00:00 8.8 3 Norte 9 Nordeste 0 -- -- 71
2020-03-17 20:00:00 11 2 Sur 9 Sudeste 0 -- -- 64
2020-03-17 19:00:00 13.3 6 Sudeste 14 Este 0 -- -- 56
2020-03-17 18:00:00 13.7 5 Sudeste 19 Sur 0 -- -- 55
2020-03-17 17:00:00 14.9 11 Sur 23 Sur 0 -- -- 52
2020-03-17 16:00:00 14.6 12 Este 22 Este 0 -- -- 51
2020-03-17 15:00:00 14.8 9 Sudeste 23 Sudeste 0 -- -- 50
2020-03-17 14:00:00 12.9 13 Este 31 Nordeste 0 -- -- 55
2020-03-17 13:00:00 10.8 18 Nordeste 36 Nordeste 0 -- -- 68
2020-03-17 12:00:00 10.1 17 Nordeste 32 Nordeste 0 -- -- 73
2020-03-17 11:00:00 7.9 19 Nordeste 36 Nordeste 0 -- -- 85
2020-03-17 10:00:00 6 16 Norte 27 Norte 0 -- -- 94
2020-03-17 09:00:00 4 12 Nordeste 20 Nordeste 0 -- -- 95
2020-03-17 08:00:00 2.9 9 Norte 21 Nordeste 0 -- -- 96
2020-03-17 07:00:00 2.3 9 Norte 21 Nordeste 0 -- -- 96
2020-03-17 06:00:00 2.4 4 Norte 21 Norte 0 -- -- 96
2020-03-17 05:00:00 2.6 12 Nordeste 21 Nordeste 0 -- -- 96
2020-03-17 04:00:00 2.6 9 Nordeste 22 Nordeste 0 -- -- 96
2020-03-17 03:00:00 3.2 14 Norte 22 Norte 0 -- -- 97
2020-03-17 02:00:00 3.2 10 Nordeste 24 Nordeste 0.2 -- -- 96
2020-03-17 01:00:00 3.4 15 Nordeste 37 Nordeste 0.2 -- -- 96
2020-03-17 00:00:00 4.1 17 Nordeste 35 Nordeste 0.2 -- -- 97
2020-03-16 23:00:00 4.1 21 Norte 35 Norte 0.2 -- -- 97
2020-03-16 22:00:00 3.9 24 Norte 44 Norte 0.6 -- -- 97
2020-03-16 21:00:00 3.7 18 Norte 46 Nordeste 1.2 -- -- 96
2020-03-16 20:00:00 4.2 25 Norte 48 Nordeste 0.8 -- -- 94
2020-03-16 19:00:00 4 18 Nordeste 33 Nordeste 0.8 -- -- 93
2020-03-16 18:00:00 4.3 24 Norte 58 Noroeste 0.8 -- -- 91
2020-03-16 17:00:00 4.3 20 Norte 33 Norte 1.2 -- -- 94
2020-03-16 16:00:00 3.9 15 Noroeste 26 Noroeste 0.2 -- -- 95
2020-03-16 15:00:00 2.9 16 Norte 35 Norte 1.6 -- -- 95
2020-03-16 14:00:00 2.5 21 Norte 36 Nordeste 1.4 -- -- 91
2020-03-16 13:00:00 4.5 27 Norte 50 Norte 0 -- -- 79
2020-03-16 12:00:00 4.7 27 Norte 42 Noroeste 0 -- -- 76
2020-03-16 11:00:00 4.1 24 Norte 41 Norte 0 -- -- 86
2020-03-16 10:00:00 2.2 23 Noroeste 41 Noroeste 0.2 -- -- 91
2020-03-16 09:00:00 1.4 22 Noroeste 41 Noroeste 0.2 -- -- 92
2020-03-16 08:00:00 1.7 27 Noroeste 48 Noroeste 0 -- -- 91
2020-03-16 07:00:00 1.6 30 Noroeste 44 Noroeste 0 -- -- 91
2020-03-16 06:00:00 1.4 22 Noroeste 35 Norte 0 -- -- 90
2020-03-16 05:00:00 1.3 22 Noroeste 37 Norte 0 -- -- 91
2020-03-16 04:00:00 1.6 23 Noroeste 38 Noroeste 0 -- -- 90
2020-03-16 03:00:00 1.2 15 Noroeste 24 Noroeste 0 -- -- 92
2020-03-16 02:00:00 0.4 13 Noroeste 26 Noroeste 0 -- -- 92
2020-03-16 01:00:00 1 18 Noroeste 32 Noroeste 0 -- -- 92
2020-03-16 00:00:00 1.1 18 Noroeste 33 Noroeste 0 -- -- 92
2020-03-15 23:00:00 1.6 22 Noroeste 39 Noroeste 0.2 -- -- 92
2020-03-15 22:00:00 4.1 20 Noroeste 37 Noroeste 0 -- -- 86
2020-03-15 21:00:00 4.8 27 Noroeste 40 Noroeste 0 -- -- 84
2020-03-15 20:00:00 7.1 26 Noroeste 42 Oeste 0 -- -- 80
2020-03-15 19:00:00 11.4 18 Noroeste 28 Oeste 0 -- -- 57
2020-03-15 18:00:00 12.1 21 Noroeste 39 Noroeste 0 -- -- 56
2020-03-15 17:00:00 12.5 23 Noroeste 36 Noroeste 0 -- -- 62
2020-03-15 16:00:00 13.5 11 Oeste 30 Noroeste 0 -- -- 66
2020-03-15 15:00:00 10.7 23 Noroeste 46 Noroeste 0 -- -- 77
2020-03-15 14:00:00 16.7 28 Sudoeste 44 Sur 0 -- -- 56
2020-03-15 13:00:00 16.4 27 Sudoeste 42 Sur 0 -- -- 59
2020-03-15 12:00:00 16 26 Sudoeste 40 Sudoeste 0 -- -- 61
2020-03-15 11:00:00 15.4 20 Sur 27 Sur 0 -- -- 63
2020-03-15 10:00:00 11.5 11 Sur 18 Sur 0 -- -- 75
2020-03-15 09:00:00 6.1 10 Sur 16 Sur 0 -- -- 83
2020-03-15 08:00:00 3.4 9 Sur 17 Sur 0 -- -- 83
2020-03-15 07:00:00 3.2 12 Sur 16 Sur 0 -- -- 81
2020-03-15 06:00:00 3.2 13 Sur 18 Sur 0 -- -- 80
2020-03-15 05:00:00 2.9 12 Sur 18 Sur 0 -- -- 80
2020-03-15 04:00:00 2.8 13 Sur 16 Sur 0 -- -- 82
2020-03-15 03:00:00 2.9 10 Sur 18 Sur 0 -- -- 84
2020-03-15 02:00:00 4 10 Sur 15 Sur 0 -- -- 79
2020-03-15 01:00:00 5.3 9 Sur 12 Sudeste 0 -- -- 73
2020-03-15 00:00:00 6.4 5 Sur 13 Sur 0 -- -- 69
2020-03-14 23:00:00 7.5 8 Sur 12 Sur 0 -- -- 68
2020-03-14 22:00:00 10.1 2 Sudeste 5 Norte 0 -- -- 56
2020-03-14 21:00:00 12 3 Norte 6 Norte 0 -- -- 50
2020-03-14 20:00:00 13.9 5 Nordeste 11 Norte 0 -- -- 46
2020-03-14 19:00:00 17.1 7 Norte 15 Norte 0 -- -- 36
2020-03-14 18:00:00 18.3 11 Norte 16 Norte 0 -- -- 33
2020-03-14 17:00:00 18.5 8 Norte 18 Norte 0 -- -- 40
2020-03-14 16:00:00 18.4 8 Nordeste 15 Nordeste 0 -- -- 46
2020-03-14 15:00:00 17.9 9 Norte 18 Norte 0 -- -- 49
2020-03-14 14:00:00 16.8 8 Norte 18 Norte 0 -- -- 56
2020-03-14 13:00:00 15.1 8 Norte 16 Norte 0 -- -- 68
2020-03-14 12:00:00 12.6 8 Norte 15 Norte 0 -- -- 74
2020-03-14 11:00:00 9.5 7 Norte 13 Norte 0 -- -- 85
2020-03-14 10:00:00 7.2 7 Norte 10 Norte 0 -- -- 95
2020-03-14 09:00:00 4.4 6 Norte 9 Norte 0 -- -- 97
2020-03-14 08:00:00 2.8 4 Norte 11 Nordeste 0 -- -- 96
2020-03-14 07:00:00 3.5 3 Oeste 13 Norte 0 -- -- 96
2020-03-14 06:00:00 4.7 10 Norte 16 Norte 0 -- -- 96
2020-03-14 05:00:00 4.2 7 Norte 12 Norte 0 -- -- 95
2020-03-14 04:00:00 5.6 0 Calma 8 Norte 0 -- -- 92
2020-03-14 03:00:00 6.9 8 Norte 12 Norte 0 -- -- 92
2020-03-14 02:00:00 7.1 7 Norte 10 Norte 0 -- -- 93
2020-03-14 01:00:00 7.7 0 Calma 9 Norte 0 -- -- 89
2020-03-14 00:00:00 8.7 6 Norte 12 Norte 0 -- -- 88
2020-03-13 23:00:00 9.9 6 Nordeste 13 Nordeste 0 -- -- 85
2020-03-13 22:00:00 10.4 8 Norte 11 Norte 0 -- -- 83
2020-03-13 21:00:00 10.9 5 Norte 8 Norte 0 -- -- 82
2020-03-13 20:00:00 12 6 Nordeste 18 Norte 0 -- -- 80
2020-03-13 19:00:00 13.9 10 Norte 24 Norte 0 -- -- 74
2020-03-13 18:00:00 14.6 15 Norte 26 Norte 0 -- -- 72
2020-03-13 17:00:00 14.5 14 Norte 27 Norte 0 -- -- 73
2020-03-13 16:00:00 14.7 18 Norte 28 Norte 0 -- -- 72
2020-03-13 15:00:00 14.2 16 Norte 27 Norte 0 -- -- 72
2020-03-13 14:00:00 13.5 17 Norte 26 Norte 0 -- -- 75
2020-03-13 13:00:00 12.4 14 Norte 25 Nordeste 0 -- -- 78
2020-03-13 12:00:00 11.4 12 Norte 22 Nordeste 0 -- -- 80
2020-03-13 11:00:00 9.5 14 Nordeste 22 Nordeste 0 -- -- 88
2020-03-13 10:00:00 8.8 12 Norte 24 Nordeste 0 -- -- 92
2020-03-13 09:00:00 7.9 12 Norte 19 Norte 0 -- -- 96
2020-03-13 08:00:00 7.7 11 Norte 21 Norte 0 -- -- 96
2020-03-13 07:00:00 7.5 12 Norte 21 Norte 0 -- -- 96
2020-03-13 06:00:00 7.8 8 Norte 13 Norte 0 -- -- 96
2020-03-13 05:00:00 8.1 7 Norte 12 Norte 0 -- -- 95
2020-03-13 04:00:00 8.7 3 Norte 9 Norte 0 -- -- 94
2020-03-13 03:00:00 10.1 6 Norte 10 Norte 0 -- -- 91
2020-03-13 02:00:00 11 5 Noroeste 8 Norte 0 -- -- 89
2020-03-13 01:00:00 11.8 4 Norte 5 Norte 0 -- -- 88
2020-03-13 00:00:00 12.6 3 Norte 7 Norte 0 -- -- 85
2020-03-12 23:00:00 13.4 0 Calma 9 Noroeste 0 -- -- 77
2020-03-12 22:00:00 14.1 6 Noroeste 12 Noroeste 0 -- -- 74
2020-03-12 21:00:00 15.3 4 Norte 6 Noroeste 0 -- -- 65
2020-03-12 20:00:00 16.7 0 Calma 10 Norte 0 -- -- 65
2020-03-12 19:00:00 18.3 7 Norte 12 Nordeste 0 -- -- 60
2020-03-12 18:00:00 19.5 6 Norte 15 Norte 0 -- -- 61
2020-03-12 17:00:00 20.4 11 Norte 17 Sur 0 -- -- 57
2020-03-12 16:00:00 21.9 9 Sur 18 Sur 0 -- -- 44
2020-03-12 15:00:00 21.1 9 Sur 21 Sudoeste 0 -- -- 50
2020-03-12 14:00:00 20.2 13 Sudoeste 28 Sur 0 -- -- 52
2020-03-12 13:00:00 21.3 17 Sur 26 Sur 0 -- -- 51
2020-03-12 12:00:00 19.6 14 Sur 27 Sur 0 -- -- 54
2020-03-12 11:00:00 19.4 14 Sur 24 Sur 0 -- -- 54
2020-03-12 10:00:00 16.2 10 Sur 17 Sur 0 -- -- 65
2020-03-12 09:00:00 11.7 4 Sur 14 Sur 0 -- -- 81
2020-03-12 08:00:00 9.9 10 Sur 17 Sur 0 -- -- 80
2020-03-12 07:00:00 10.4 12 Sur 15 Sudeste 0 -- -- 76
2020-03-12 06:00:00 12 9 Sur 12 Sur 0 -- -- 70
2020-03-12 05:00:00 11 10 Sur 12 Sur 0 -- -- 74
2020-03-12 04:00:00 11.4 8 Sur 12 Sur 0 -- -- 73
2020-03-12 03:00:00 10.9 8 Sur 12 Sur 0 -- -- 78
2020-03-12 02:00:00 11.9 9 Sur 15 Sur 0 -- -- 75
2020-03-12 01:00:00 11.9 11 Sur 15 Sur 0 -- -- 79
2020-03-12 00:00:00 12 9 Sur 13 Sur 0 -- -- 78
2020-03-11 23:00:00 13.1 10 Sur 13 Sur 0 -- -- 74
2020-03-11 22:00:00 15.4 6 Sudeste 8 Sudeste 0 -- -- 55
2020-03-11 21:00:00 15.7 5 Sur 6 Sur 0 -- -- 60
2020-03-11 20:00:00 16.8 4 Sur 9 Sur 0 -- -- 60
2020-03-11 19:00:00 18.2 6 Sur 17 Sur 0 -- -- 55
2020-03-11 18:00:00 19.8 14 Sur 22 Sur 0 -- -- 50
2020-03-11 17:00:00 21.6 17 Sur 28 Sur 0 -- -- 44
2020-03-11 16:00:00 23.4 19 Sur 31 Sur 0 -- -- 36
2020-03-11 15:00:00 23.9 20 Sur 27 Sur 0 -- -- 36
2020-03-11 14:00:00 23.8 13 Sur 24 Sur 0 -- -- 38
2020-03-11 13:00:00 22.6 5 Sudoeste 15 Sur 0 -- -- 44
2020-03-11 12:00:00 20.8 8 Sur 12 Sudoeste 0 -- -- 48
2020-03-11 11:00:00 17.9 6 Sur 10 Sur 0 -- -- 61
2020-03-11 10:00:00 12.2 9 Sur 15 Sur 0 -- -- 82
2020-03-11 09:00:00 6.9 14 Sur 17 Sur 0 -- -- 92
2020-03-11 08:00:00 5.1 13 Sur 17 Sur 0 -- -- 92
2020-03-11 07:00:00 5.6 12 Sur 18 Sur 0 -- -- 93
2020-03-11 06:00:00 5.1 15 Sur 17 Sur 0 -- -- 92
2020-03-11 05:00:00 6.6 11 Sur 15 Sur 0 -- -- 90
2020-03-11 04:00:00 6.8 12 Sur 15 Sur 0 -- -- 89
2020-03-11 03:00:00 6.6 12 Sur 18 Sur 0 -- -- 91
2020-03-11 02:00:00 7.9 9 Sur 12 Sur 0 -- -- 89
2020-03-11 01:00:00 9 8 Sur 12 Sur 0 -- -- 88
2020-03-11 00:00:00 10.5 8 Sur 10 Sur 0 -- -- 81
2020-03-10 23:00:00 11 5 Sudeste 7 Sudeste 0 -- -- 73
2020-03-10 22:00:00 14.1 3 Noroeste 9 Noroeste 0 -- -- 63
2020-03-10 21:00:00 15.7 2 Norte 10 Norte 0 -- -- 58
2020-03-10 20:00:00 17 6 Noroeste 9 Noroeste 0 -- -- 56
2020-03-10 19:00:00 20.5 3 Nordeste 14 Oeste 0 -- -- 49
2020-03-10 18:00:00 22.9 9 Oeste 21 Oeste 0 -- -- 43
2020-03-10 17:00:00 22.9 12 Noroeste 20 Noroeste 0 -- -- 42
2020-03-10 16:00:00 22.7 5 Oeste 18 Norte 0 -- -- 45
2020-03-10 15:00:00 21.7 9 Noroeste 19 Noroeste 0 -- -- 49
2020-03-10 14:00:00 20.4 5 Noroeste 12 Noroeste 0 -- -- 53
2020-03-10 13:00:00 19.2 3 Sudeste 9 Noroeste 0 -- -- 54
2020-03-10 12:00:00 16.1 2 Sur 8 Sur 0 -- -- 62
2020-03-10 11:00:00 12 3 Sudeste 12 Sur 0 -- -- 75
2020-03-10 10:00:00 7.5 9 Sur 13 Sudeste 0 -- -- 90
2020-03-10 09:00:00 4.2 9 Sur 11 Sudeste 0 -- -- 93
2020-03-10 08:00:00 3.8 0 Calma 10 Sur 0 -- -- 92
2020-03-10 07:00:00 3.2 9 Sur 14 Sudeste 0 -- -- 93
2020-03-10 06:00:00 4.4 10 Sudeste 14 Sudeste 0 -- -- 93
2020-03-10 05:00:00 3.8 9 Sur 13 Sur 0 -- -- 90
2020-03-10 04:00:00 4.3 10 Sur 12 Sur 0 -- -- 87
2020-03-10 03:00:00 5.5 6 Sudoeste 13 Sur 0 -- -- 90
2020-03-10 02:00:00 4.4 10 Sur 14 Sur 0 -- -- 87
2020-03-10 01:00:00 6.6 3 Sudoeste 5 Sur 0 -- -- 83
2020-03-10 00:00:00 7.8 0 Calma 4 Noroeste 0 -- -- 77
2020-03-09 23:00:00 7.7 0 Calma 7 Sudoeste 0 -- -- 66
2020-03-09 22:00:00 7.7 0 Calma 6 Este 0 -- -- 66
2020-03-09 21:00:00 9.2 5 Nordeste 15 Norte 0 -- -- 61
2020-03-09 20:00:00 10.4 12 Norte 17 Norte 0 -- -- 57
2020-03-09 19:00:00 12.2 7 Norte 20 Norte 0 -- -- 53
2020-03-09 18:00:00 13.3 18 Norte 26 Norte 0 -- -- 48
2020-03-09 17:00:00 13.9 14 Noroeste 22 Norte 0 -- -- 48
2020-03-09 16:00:00 13.6 9 Norte 20 Norte 0 -- -- 50
2020-03-09 15:00:00 13.1 15 Norte 25 Norte 0 -- -- 56
2020-03-09 14:00:00 11.9 21 Norte 30 Norte 0 -- -- 51
2020-03-09 13:00:00 10 12 Norte 22 Norte 0 -- -- 68
2020-03-09 12:00:00 8.1 13 Norte 26 Norte 0 -- -- 79
2020-03-09 11:00:00 6.6 9 Norte 15 Norte 0 -- -- 93
2020-03-09 10:00:00 5 5 Norte 11 Norte 0 -- -- 98
2020-03-09 09:00:00 4 0 Calma 6 Sudeste 0 -- -- 98
2020-03-09 08:00:00 2.8 0 Calma 4 Noroeste 0 -- -- 97
2020-03-09 07:00:00 4.2 4 Norte 12 Norte 0 -- -- 97
2020-03-09 06:00:00 4.6 3 Norte 11 Norte 0 -- -- 97
2020-03-09 05:00:00 5 5 Norte 9 Noroeste 0 -- -- 97
2020-03-09 04:00:00 4.3 6 Noroeste 9 Noroeste 0 -- -- 96
2020-03-09 03:00:00 4.3 2 Noroeste 7 Noroeste 0 -- -- 95
2020-03-09 02:00:00 5 0 Calma 8 Oeste 0 -- -- 93
2020-03-09 01:00:00 5.8 8 Noroeste 18 Noroeste 0 -- -- 92
2020-03-09 00:00:00 6.5 10 Oeste 17 Noroeste 0 -- -- 92
2020-03-08 23:00:00 7.1 9 Noroeste 17 Oeste 0 -- -- 92
2020-03-08 22:00:00 8 14 Oeste 23 Oeste 0 -- -- 93
2020-03-08 21:00:00 8.3 9 Oeste 17 Oeste 0 -- -- 91
2020-03-08 20:00:00 9.7 9 Noroeste 16 Noroeste 0 -- -- 86
2020-03-08 19:00:00 10.6 6 Noroeste 18 Noroeste 0 -- -- 81
2020-03-08 18:00:00 10.9 13 Noroeste 19 Noroeste 0 -- -- 80
2020-03-08 17:00:00 11.6 12 Noroeste 21 Noroeste 0 -- -- 76
2020-03-08 16:00:00 10.8 5 Oeste 14 Noroeste 0 -- -- 70
2020-03-08 15:00:00 10.2 9 Noroeste 18 Noroeste 0 -- -- 69
2020-03-08 14:00:00 9.7 8 Noroeste 13 Noroeste 0 -- -- 78
2020-03-08 13:00:00 9.3 3 Nordeste 14 Oeste 0 -- -- 75
2020-03-08 12:00:00 8.8 4 Noroeste 11 Noroeste 0 -- -- 80
2020-03-08 11:00:00 6.6 3 Norte 10 Norte 0 -- -- 92
2020-03-08 10:00:00 3.9 3 Sur 6 Sur 0 -- -- 96
2020-03-08 09:00:00 0 4 Sur 13 Sur 0 -- -- 97
2020-03-08 08:00:00 -0.8 6 Sudeste 9 Sur 0 -- -- 94
2020-03-08 07:00:00 -0.3 0 Calma 6 Sudeste 0 -- -- 94
2020-03-08 06:00:00 0 2 Sudeste 9 Sur 0 -- -- 93
2020-03-08 05:00:00 0.7 7 Sur 10 Sur 0 -- -- 92
2020-03-08 04:00:00 1.1 6 Sudeste 14 Sur 0 -- -- 93
2020-03-08 03:00:00 1.6 13 Sur 17 Sur 0 -- -- 90
2020-03-08 02:00:00 3.3 5 Sur 13 Sur 0 -- -- 88
2020-03-08 01:00:00 2.1 11 Sur 16 Sur 0 -- -- 91
2020-03-08 00:00:00 3.6 8 Sur 12 Sur 0 -- -- 88
2020-03-07 23:00:00 5.1 4 Sudoeste 10 Sur 0 -- -- 84
2020-03-07 22:00:00 6.4 6 Sudeste 9 Este 0 -- -- 76
2020-03-07 21:00:00 8.4 4 Este 5 Nordeste 0 -- -- 69
2020-03-07 20:00:00 10.2 2 Nordeste 9 Nordeste 0 -- -- 66
2020-03-07 19:00:00 12.7 6 Nordeste 14 Nordeste 0 -- -- 59
2020-03-07 18:00:00 13.5 6 Nordeste 15 Nordeste 0 -- -- 55
2020-03-07 17:00:00 14.3 6 Noroeste 19 Noroeste 0 -- -- 51
2020-03-07 16:00:00 13.6 4 Este 12 Nordeste 0 -- -- 57
2020-03-07 15:00:00 12.9 5 Nordeste 15 Norte 0 -- -- 60
2020-03-07 14:00:00 11.6 4 Nordeste 14 Norte 0 -- -- 68
2020-03-07 13:00:00 10.1 6 Nordeste 15 Norte 0 -- -- 70
2020-03-07 12:00:00 8.1 12 Norte 19 Noroeste 0 -- -- 78
2020-03-07 11:00:00 7 7 Norte 10 Nordeste 0 -- -- 84
2020-03-07 10:00:00 4.9 4 Este 8 Este 0 -- -- 92
2020-03-07 09:00:00 2 3 Este 8 Este 0 -- -- 94
2020-03-07 08:00:00 0.9 4 Sudeste 6 Sudeste 0 -- -- 93
2020-03-07 07:00:00 0.8 5 Sur 6 Sur 0 -- -- 91
2020-03-07 06:00:00 0.8 3 Sudoeste 6 Sur 0 -- -- 90
2020-03-07 05:00:00 1.6 4 Oeste 6 Sur 0 -- -- 87
2020-03-07 04:00:00 1.7 6 Sur 14 Norte 0 -- -- 84
2020-03-07 03:00:00 2.7 2 Este 13 Norte 0 -- -- 79
2020-03-07 02:00:00 3 7 Norte 18 Nordeste 0 -- -- 79
2020-03-07 01:00:00 3.5 10 Norte 19 Noroeste 0 -- -- 75
2020-03-07 00:00:00 3.3 9 Noroeste 20 Noroeste 0 -- -- 74
2020-03-06 23:00:00 3.9 12 Noroeste 19 Noroeste 0 -- -- 72
2020-03-06 22:00:00 4.7 9 Norte 29 Norte 0 -- -- 71
2020-03-06 21:00:00 5.7 13 Norte 24 Norte 0 -- -- 66
2020-03-06 20:00:00 6.2 15 Norte 30 Norte 0 -- -- 66
2020-03-06 19:00:00 8.1 19 Norte 40 Noroeste 0 -- -- 60
2020-03-06 18:00:00 9.4 31 Norte 47 Noroeste 0 -- -- 54
2020-03-06 17:00:00 9.6 23 Noroeste 49 Norte 0 -- -- 54
2020-03-06 16:00:00 8.9 31 Norte 46 Noroeste 0 -- -- 60
2020-03-06 15:00:00 9.7 26 Noroeste 46 Noroeste 0 -- -- 62
2020-03-06 14:00:00 9 33 Noroeste 48 Norte 0 -- -- 63
2020-03-06 13:00:00 7.6 29 Noroeste 45 Noroeste 0 -- -- 67
2020-03-06 12:00:00 7.2 26 Norte 48 Noroeste 0 -- -- 67
2020-03-06 11:00:00 6.3 27 Noroeste 50 Noroeste 0 -- -- 79
2020-03-06 10:00:00 5.8 24 Noroeste 40 Oeste 0 -- -- 78
2020-03-06 09:00:00 4.2 23 Noroeste 33 Oeste 0 -- -- 83
2020-03-06 08:00:00 3.5 17 Noroeste 26 Oeste 0 -- -- 83
2020-03-06 07:00:00 3.9 18 Noroeste 37 Noroeste 0 -- -- 79
2020-03-06 06:00:00 4.9 15 Noroeste 27 Oeste 0 -- -- 87
2020-03-06 05:00:00 5.2 18 Oeste 39 Oeste 0 -- -- 87
2020-03-06 04:00:00 6.1 27 Noroeste 46 Noroeste 0 -- -- 92
2020-03-06 03:00:00 6 21 Oeste 32 Oeste 0 -- -- 88
2020-03-06 02:00:00 5.5 13 Oeste 26 Oeste 0 -- -- 89
2020-03-06 01:00:00 4.7 12 Oeste 23 Noroeste 0 -- -- 87
2020-03-06 00:00:00 4.9 14 Noroeste 26 Noroeste 0 -- -- 88
2020-03-05 23:00:00 5.4 12 Noroeste 26 Oeste 0 -- -- 86
2020-03-05 22:00:00 5.6 19 Noroeste 33 Oeste 0 -- -- 85
2020-03-05 21:00:00 6.8 15 Noroeste 32 Noroeste 0 -- -- 81
2020-03-05 20:00:00 7.5 20 Noroeste 38 Noroeste 0 -- -- 77
2020-03-05 19:00:00 8.9 24 Oeste 43 Oeste 0 -- -- 69
2020-03-05 18:00:00 9.9 25 Noroeste 44 Noroeste 0 -- -- 64
2020-03-05 17:00:00 11.1 23 Oeste 52 Oeste 0 -- -- 64
2020-03-05 16:00:00 11.5 30 Oeste 48 Noroeste 0 -- -- 69
2020-03-05 15:00:00 11.5 27 Oeste 46 Oeste 0 -- -- 70
2020-03-05 14:00:00 10.5 32 Oeste 47 Oeste 0 -- -- 72
2020-03-05 13:00:00 9.7 27 Oeste 39 Oeste 0 -- -- 74
2020-03-05 12:00:00 9.3 26 Noroeste 45 Oeste 0 -- -- 74
2020-03-05 11:00:00 9.1 24 Noroeste 39 Noroeste 0 -- -- 77
2020-03-05 10:00:00 6.8 21 Noroeste 47 Noroeste 0 -- -- 91
2020-03-05 09:00:00 8.1 31 Oeste 50 Oeste 0.8 -- -- 90
2020-03-05 08:00:00 9.6 24 Sudoeste 42 Sur 0 -- -- 94
2020-03-05 07:00:00 9.8 27 Sudoeste 45 Sudoeste 0 -- -- 92
2020-03-05 06:00:00 10.1 22 Sudoeste 36 Sudoeste 0 -- -- 90
2020-03-05 05:00:00 10 23 Sur 34 Sudoeste 0 -- -- 88
2020-03-05 04:00:00 10.2 22 Sur 30 Sur 0 -- -- 87
2020-03-05 03:00:00 10.1 18 Sudoeste 27 Sudoeste 0 -- -- 88
2020-03-05 02:00:00 10.4 13 Sudoeste 24 Sudoeste 0 -- -- 90
2020-03-05 01:00:00 11 15 Sudoeste 22 Sur 0 -- -- 91
2020-03-05 00:00:00 10.9 10 Sur 15 Sudoeste 0 -- -- 91